Time;durP1;ratioP1;P1;durP2;ratioP2;P2;SDS_P1;SDS_P2;PMS_P1;PMS_P2;Temp;Humidity;BMP_temperature;BMP_pressure;BME280_temperature;BME280_humidity;BME280_pressure;Samples;Min_cycle;Max_cycle;Signal;HPM_P1;HPM_P2
2023/07/15 00:01:36;;;;;;;7.65;4.28;;;;;;;;;;4836240;29;20053;-89
2023/07/15 00:04:11;;;;;;;8.63;4.50;;;;;;;;;;4861884;29;20133;-90
2023/07/15 00:06:44;;;;;;;9.40;4.55;;;;;;;;;;4854702;29;20030;-91
2023/07/15 00:09:26;;;;;;;6.50;4.28;;;;;;;;;;4847099;29;20042;-89
2023/07/15 00:14:39;;;;;;;7.82;4.47;;;;;;;;;;4861823;29;20053;-90
2023/07/15 00:17:06;;;;;;;10.35;4.07;;;;;;;;;;4843831;29;20030;-89
2023/07/15 00:19:33;;;;;;;8.00;3.72;;;;;;;;;;4861311;29;20038;-90
2023/07/15 00:21:59;;;;;;;6.35;3.95;;;;;;;;;;4865692;29;20049;-91
2023/07/15 00:24:28;;;;;;;8.38;4.50;;;;;;;;;;4864211;29;20033;-90
2023/07/15 00:26:55;;;;;;;8.73;4.35;;;;;;;;;;4868704;29;20042;-89
2023/07/15 00:29:21;;;;;;;8.30;3.97;;;;;;;;;;4849208;29;20136;-90
2023/07/15 00:31:48;;;;;;;6.03;3.90;;;;;;;;;;4845219;29;20037;-89
2023/07/15 00:34:14;;;;;;;7.63;4.32;;;;;;;;;;4860284;29;20034;-89
2023/07/15 00:36:40;;;;;;;10.82;3.92;;;;;;;;;;4845283;29;20038;-87
2023/07/15 00:39:08;;;;;;;11.00;4.25;;;;;;;;;;4846576;29;20069;-88
2023/07/15 00:41:44;;;;;;;10.63;3.80;;;;;;;;;;4864099;29;20410;-90
2023/07/15 00:44:14;;;;;;;7.30;3.83;;;;;;;;;;4861185;29;20046;-89
2023/07/15 00:46:58;;;;;;;13.40;4.20;;;;;;;;;;4851448;29;20029;-89
2023/07/15 00:49:48;;;;;;;8.48;3.55;;;;;;;;;;4846676;29;20382;-89
2023/07/15 00:52:16;;;;;;;7.35;4.03;;;;;;;;;;4859814;29;20034;-88
2023/07/15 00:54:45;;;;;;;7.72;4.20;;;;;;;;;;4845866;29;20045;-89
2023/07/15 00:57:12;;;;;;;5.32;3.70;;;;;;;;;;4847918;29;20053;-90
2023/07/15 00:59:39;;;;;;;9.90;4.75;;;;;;;;;;4855165;29;20033;-87
2023/07/15 01:02:06;;;;;;;9.73;3.90;;;;;;;;;;4827633;29;20053;-88
2023/07/15 01:04:34;;;;;;;12.43;4.97;;;;;;;;;;4840506;29;20030;-88
2023/07/15 01:07:12;;;;;;;8.63;4.20;;;;;;;;;;4837644;29;20037;-90
2023/07/15 01:09:40;;;;;;;9.13;3.95;;;;;;;;;;4849730;29;20463;-89
2023/07/15 01:12:07;;;;;;;6.18;4.20;;;;;;;;;;4858744;29;20539;-90
2023/07/15 01:14:34;;;;;;;8.32;3.50;;;;;;;;;;4843143;29;20038;-89
2023/07/15 01:17:05;;;;;;;9.77;3.97;;;;;;;;;;4836110;29;20037;-90
2023/07/15 01:19:31;;;;;;;6.32;4.00;;;;;;;;;;4840500;29;20109;-89
2023/07/15 01:21:58;;;;;;;6.38;4.18;;;;;;;;;;4849067;29;20624;-90
2023/07/15 01:24:26;;;;;;;9.75;3.70;;;;;;;;;;4861436;29;20038;-90
2023/07/15 01:27:02;;;;;;;6.38;3.67;;;;;;;;;;4854648;29;20085;-90
2023/07/15 01:29:28;;;;;;;9.88;3.67;;;;;;;;;;4862972;29;20071;-89
2023/07/15 01:31:54;;;;;;;6.75;3.78;;;;;;;;;;4856446;29;20030;-90
2023/07/15 01:34:21;;;;;;;5.85;4.00;;;;;;;;;;4829785;29;20135;-89
2023/07/15 01:36:48;;;;;;;7.95;3.78;;;;;;;;;;4839572;29;20038;-89
2023/07/15 01:39:15;;;;;;;8.73;3.80;;;;;;;;;;4845662;29;20037;-90
2023/07/15 01:41:45;;;;;;;4.80;3.45;;;;;;;;;;4848388;29;20067;-89
2023/07/15 01:44:15;;;;;;;7.85;3.72;;;;;;;;;;4867062;29;20495;-89
2023/07/15 01:46:41;;;;;;;6.75;3.60;;;;;;;;;;4863994;29;20040;-90
2023/07/15 01:49:30;;;;;;;6.45;3.97;;;;;;;;;;4863767;29;20029;-91
2023/07/15 01:51:55;;;;;;;8.43;4.03;;;;;;;;;;4863680;29;20060;-89
2023/07/15 01:54:37;;;;;;;8.95;4.40;;;;;;;;;;4862887;29;20033;-90
2023/07/15 01:57:12;;;;;;;7.78;4.20;;;;;;;;;;4847236;29;20033;-89
2023/07/15 01:59:40;;;;;;;8.27;3.70;;;;;;;;;;4836457;29;20048;-90
2023/07/15 02:02:06;;;;;;;9.10;4.68;;;;;;;;;;4859174;29;20045;-88
2023/07/15 02:07:22;;;;;;;9.00;3.80;;;;;;;;;;4842573;29;20407;-90
2023/07/15 02:09:49;;;;;;;25.23;3.83;;;;;;;;;;4846410;29;20029;-90
2023/07/15 02:12:17;;;;;;;8.07;4.13;;;;;;;;;;4863302;29;20034;-89
2023/07/15 02:14:49;;;;;;;6.43;3.50;;;;;;;;;;4829685;29;20061;-89
2023/07/15 02:17:17;;;;;;;8.15;3.85;;;;;;;;;;4829527;29;20065;-91
2023/07/15 02:19:47;;;;;;;9.05;3.75;;;;;;;;;;4864227;29;20530;-90
2023/07/15 02:22:23;;;;;;;6.13;3.90;;;;;;;;;;4846003;29;20509;-91
2023/07/15 02:24:49;;;;;;;8.32;3.83;;;;;;;;;;4864290;29;20839;-89
2023/07/15 02:27:16;;;;;;;9.98;4.38;;;;;;;;;;4831604;29;20098;-89
2023/07/15 02:29:44;;;;;;;14.00;3.83;;;;;;;;;;4858963;29;20063;-89
2023/07/15 02:32:35;;;;;;;5.63;3.60;;;;;;;;;;4868428;29;20025;-88
2023/07/15 02:35:02;;;;;;;8.57;3.50;;;;;;;;;;4864929;29;20033;-89
2023/07/15 02:37:28;;;;;;;7.97;3.65;;;;;;;;;;4844921;29;20502;-89
2023/07/15 02:39:55;;;;;;;7.03;3.65;;;;;;;;;;4862477;29;20131;-88
2023/07/15 02:42:21;;;;;;;7.25;3.45;;;;;;;;;;4849469;29;20033;-89
2023/07/15 02:44:48;;;;;;;6.40;3.38;;;;;;;;;;4845782;29;20065;-90
2023/07/15 02:47:17;;;;;;;7.43;3.70;;;;;;;;;;4872153;29;20058;-89
2023/07/15 02:49:43;;;;;;;5.43;3.45;;;;;;;;;;4862329;29;20037;-89
2023/07/15 02:52:10;;;;;;;6.97;3.90;;;;;;;;;;4861275;29;20034;-89
2023/07/15 02:54:36;;;;;;;9.90;3.45;;;;;;;;;;4843891;29;20042;-89
2023/07/15 02:57:05;;;;;;;6.53;3.47;;;;;;;;;;4845320;29;20037;-89
2023/07/15 02:59:34;;;;;;;9.48;3.28;;;;;;;;;;4859744;29;20408;-90
2023/07/15 03:02:03;;;;;;;6.25;3.30;;;;;;;;;;4841869;29;20186;-88
2023/07/15 03:04:32;;;;;;;7.60;2.88;;;;;;;;;;4842196;29;20076;-89
2023/07/15 03:07:09;;;;;;;5.20;3.35;;;;;;;;;;4842483;29;20064;-88
2023/07/15 03:09:36;;;;;;;7.95;3.35;;;;;;;;;;4842354;29;20041;-89
2023/07/15 03:12:02;;;;;;;7.00;3.25;;;;;;;;;;4835939;29;20037;-88
2023/07/15 03:14:28;;;;;;;5.43;3.38;;;;;;;;;;4843428;29;20042;-88
2023/07/15 03:16:55;;;;;;;12.23;3.20;;;;;;;;;;4855597;29;20501;-88
2023/07/15 03:19:21;;;;;;;7.90;3.00;;;;;;;;;;4828102;29;21562;-88
2023/07/15 03:21:48;;;;;;;4.45;2.83;;;;;;;;;;4841588;29;20038;-89
2023/07/15 03:24:14;;;;;;;5.55;2.78;;;;;;;;;;4863332;29;20048;-88
2023/07/15 03:26:41;;;;;;;8.38;2.83;;;;;;;;;;4837993;29;20558;-88
2023/07/15 03:29:08;;;;;;;6.22;2.72;;;;;;;;;;4842196;29;20090;-89
2023/07/15 03:31:35;;;;;;;8.40;3.17;;;;;;;;;;4827707;29;20065;-89
2023/07/15 03:34:02;;;;;;;5.30;3.30;;;;;;;;;;4865793;29;20514;-90
2023/07/15 03:36:28;;;;;;;8.73;2.90;;;;;;;;;;4847623;29;20033;-88
2023/07/15 03:38:54;;;;;;;11.27;2.95;;;;;;;;;;4866327;29;20502;-90
2023/07/15 03:41:20;;;;;;;5.75;2.40;;;;;;;;;;4850296;29;20479;-88
2023/07/15 03:43:52;;;;;;;8.50;3.13;;;;;;;;;;4855189;29;20068;-88
2023/07/15 03:46:18;;;;;;;6.20;3.20;;;;;;;;;;4849818;29;20120;-89
2023/07/15 03:48:44;;;;;;;3.65;2.38;;;;;;;;;;4866027;29;20113;-88
2023/07/15 03:51:14;;;;;;;6.07;2.72;;;;;;;;;;4850305;29;20041;-89
2023/07/15 03:53:40;;;;;;;4.13;2.25;;;;;;;;;;4865549;29;20033;-89
2023/07/15 03:56:06;;;;;;;5.10;2.70;;;;;;;;;;4847784;29;20538;-90
2023/07/15 03:58:32;;;;;;;3.92;2.40;;;;;;;;;;4830323;29;20419;-90
2023/07/15 04:00:59;;;;;;;6.03;2.80;;;;;;;;;;4855185;29;20034;-89
2023/07/15 04:03:25;;;;;;;4.20;2.80;;;;;;;;;;4854016;29;20125;-90
2023/07/15 04:05:51;;;;;;;7.75;2.78;;;;;;;;;;4839195;29;20041;-90
2023/07/15 04:08:17;;;;;;;7.65;2.90;;;;;;;;;;4857457;29;20038;-90
2023/07/15 04:10:49;;;;;;;6.28;2.78;;;;;;;;;;4859295;29;20034;-90
2023/07/15 04:13:19;;;;;;;5.45;2.88;;;;;;;;;;4854121;29;20109;-90
2023/07/15 04:15:45;;;;;;;4.18;2.72;;;;;;;;;;4858955;29;20099;-89
2023/07/15 04:18:11;;;;;;;4.68;2.83;;;;;;;;;;4855811;29;20042;-90
2023/07/15 04:20:38;;;;;;;11.77;2.33;;;;;;;;;;4859098;29;20037;-89
2023/07/15 04:23:04;;;;;;;6.03;3.00;;;;;;;;;;4860326;29;20134;-89
2023/07/15 04:25:30;;;;;;;6.05;3.08;;;;;;;;;;4856921;29;20038;-89
2023/07/15 04:27:57;;;;;;;3.25;2.30;;;;;;;;;;4835683;29;20091;-88
2023/07/15 04:30:23;;;;;;;7.10;2.30;;;;;;;;;;4823529;29;20129;-89
2023/07/15 04:32:49;;;;;;;6.93;2.72;;;;;;;;;;4834757;29;20034;-90
2023/07/15 04:35:16;;;;;;;7.25;3.53;;;;;;;;;;4859303;29;20060;-89
2023/07/15 04:37:42;;;;;;;5.93;2.90;;;;;;;;;;4858042;29;20034;-90
2023/07/15 04:40:11;;;;;;;7.70;2.92;;;;;;;;;;4852722;29;20042;-90
2023/07/15 04:42:38;;;;;;;5.55;3.17;;;;;;;;;;4856145;29;20144;-89
2023/07/15 04:45:06;;;;;;;8.15;2.47;;;;;;;;;;4840580;29;20057;-89
2023/07/15 04:47:34;;;;;;;4.78;2.92;;;;;;;;;;4841301;29;20038;-89
2023/07/15 04:50:04;;;;;;;5.72;2.60;;;;;;;;;;4857959;29;20046;-90
2023/07/15 04:52:32;;;;;;;14.50;3.30;;;;;;;;;;4859620;29;20082;-89
2023/07/15 04:55:00;;;;;;;5.38;2.22;;;;;;;;;;4859114;29;20041;-90
2023/07/15 04:57:32;;;;;;;5.43;2.45;;;;;;;;;;4842017;29;20940;-90
2023/07/15 04:59:58;;;;;;;3.80;2.50;;;;;;;;;;4853866;29;20049;-90
2023/07/15 05:02:24;;;;;;;6.80;2.50;;;;;;;;;;4855786;29;20034;-91
2023/07/15 05:04:50;;;;;;;5.35;2.63;;;;;;;;;;4861622;29;20076;-90
2023/07/15 05:07:16;;;;;;;6.65;3.15;;;;;;;;;;4832357;29;20038;-90
2023/07/15 05:09:42;;;;;;;6.15;2.78;;;;;;;;;;4859505;29;20076;-89
2023/07/15 05:12:18;;;;;;;4.10;2.60;;;;;;;;;;4838620;29;20026;-91
2023/07/15 05:14:54;;;;;;;5.72;2.88;;;;;;;;;;4853892;29;20038;-89
2023/07/15 05:17:20;;;;;;;6.45;2.58;;;;;;;;;;4857153;29;20042;-90
2023/07/15 05:19:49;;;;;;;5.43;2.55;;;;;;;;;;4825505;29;20158;-89
2023/07/15 05:22:19;;;;;;;5.38;3.58;;;;;;;;;;4845193;29;20042;-91
2023/07/15 05:24:49;;;;;;;7.28;2.92;;;;;;;;;;4858396;29;20555;-91
2023/07/15 05:27:31;;;;;;;5.97;3.00;;;;;;;;;;4856785;29;20034;-91
2023/07/15 05:30:14;;;;;;;8.10;3.90;;;;;;;;;;4844952;29;20057;-91
2023/07/15 05:32:41;;;;;;;9.48;3.60;;;;;;;;;;4828963;29;20085;-89
2023/07/15 05:35:14;;;;;;;7.88;3.10;;;;;;;;;;4826888;29;20045;-89
2023/07/15 05:37:40;;;;;;;5.55;2.70;;;;;;;;;;4841255;29;20033;-90
2023/07/15 05:40:10;;;;;;;3.30;2.45;;;;;;;;;;4857620;29;20054;-88
2023/07/15 05:42:43;;;;;;;4.78;3.25;;;;;;;;;;4856743;29;20532;-88
2023/07/15 05:45:10;;;;;;;6.30;3.42;;;;;;;;;;4867436;29;20619;-89
2023/07/15 05:47:36;;;;;;;5.45;2.72;;;;;;;;;;4856505;29;20037;-87
2023/07/15 05:50:06;;;;;;;6.70;2.92;;;;;;;;;;4856232;29;20044;-87
2023/07/15 05:52:33;;;;;;;4.70;2.53;;;;;;;;;;4857222;29;20037;-89
2023/07/15 05:54:59;;;;;;;5.10;3.20;;;;;;;;;;4858962;29;20046;-90
2023/07/15 05:57:25;;;;;;;8.48;2.85;;;;;;;;;;4860628;29;20029;-90
2023/07/15 05:59:52;;;;;;;7.75;2.33;;;;;;;;;;4848387;29;20061;-90
2023/07/15 06:02:18;;;;;;;5.65;2.50;;;;;;;;;;4855562;29;20034;-89
2023/07/15 06:04:45;;;;;;;6.90;2.95;;;;;;;;;;4848326;29;20132;-90
2023/07/15 06:07:12;;;;;;;5.75;2.67;;;;;;;;;;4855048;29;20029;-89
2023/07/15 06:09:41;;;;;;;11.52;2.38;;;;;;;;;;4844507;29;20041;-91
2023/07/15 06:12:08;;;;;;;11.00;3.10;;;;;;;;;;4858144;29;20364;-90
2023/07/15 06:14:34;;;;;;;5.40;2.90;;;;;;;;;;4829573;29;20049;-91
2023/07/15 06:17:01;;;;;;;6.47;2.55;;;;;;;;;;4848460;29;20033;-91
2023/07/15 06:19:27;;;;;;;7.60;2.63;;;;;;;;;;4857285;29;20068;-90
2023/07/15 06:22:02;;;;;;;4.95;2.33;;;;;;;;;;4858454;29;20029;-89
2023/07/15 06:24:28;;;;;;;3.08;2.13;;;;;;;;;;4861758;29;20205;-90
2023/07/15 06:26:55;;;;;;;4.72;2.38;;;;;;;;;;4838642;29;20091;-90
2023/07/15 06:29:21;;;;;;;5.85;2.65;;;;;;;;;;4841573;29;20390;-90
2023/07/15 06:31:47;;;;;;;3.83;2.60;;;;;;;;;;4839377;29;20038;-90
2023/07/15 06:34:16;;;;;;;9.27;2.55;;;;;;;;;;4841760;29;20476;-90
2023/07/15 06:36:42;;;;;;;7.20;2.45;;;;;;;;;;4854753;29;20413;-87
2023/07/15 06:39:15;;;;;;;3.88;2.50;;;;;;;;;;4824895;29;20038;-90
2023/07/15 06:41:41;;;;;;;5.63;2.83;;;;;;;;;;4855215;29;20048;-90
2023/07/15 06:44:19;;;;;;;6.85;2.28;;;;;;;;;;4858947;29;20073;-90
2023/07/15 06:46:50;;;;;;;5.30;2.88;;;;;;;;;;4858378;29;20034;-89
2023/07/15 06:49:16;;;;;;;8.32;2.30;;;;;;;;;;4829401;29;20121;-90
2023/07/15 06:52:02;;;;;;;3.90;2.58;;;;;;;;;;4846249;29;20045;-88
2023/07/15 06:54:31;;;;;;;4.47;2.80;;;;;;;;;;4832379;29;20049;-91
2023/07/15 06:57:01;;;;;;;7.00;2.97;;;;;;;;;;4843145;29;20233;-90
2023/07/15 06:59:31;;;;;;;5.90;2.25;;;;;;;;;;4860638;29;20770;-90
2023/07/15 07:01:58;;;;;;;7.00;2.78;;;;;;;;;;4864200;29;20033;-90
2023/07/15 07:04:32;;;;;;;9.73;2.65;;;;;;;;;;4865666;29;20041;-91
2023/07/15 07:07:13;;;;;;;5.07;2.60;;;;;;;;;;4865569;29;20094;-90
2023/07/15 07:09:44;;;;;;;4.10;2.72;;;;;;;;;;4861344;29;20049;-91
2023/07/15 07:14:56;;;;;;;9.82;2.30;;;;;;;;;;4864468;29;20090;-91
2023/07/15 07:17:22;;;;;;;5.00;2.47;;;;;;;;;;4852830;29;20049;-91
2023/07/15 07:19:55;;;;;;;4.97;2.20;;;;;;;;;;4829567;29;20390;-90
2023/07/15 07:22:22;;;;;;;5.72;2.97;;;;;;;;;;4865907;29;20029;-91
2023/07/15 07:25:01;;;;;;;5.38;2.05;;;;;;;;;;4859255;29;20101;-90
2023/07/15 07:27:59;;;;;;;5.35;2.50;;;;;;;;;;4841591;29;20045;-90
2023/07/15 07:30:33;;;;;;;4.97;2.80;;;;;;;;;;4862301;29;20057;-91
2023/07/15 07:33:05;;;;;;;3.63;2.15;;;;;;;;;;4841846;29;20044;-90
2023/07/15 07:35:37;;;;;;;4.45;1.92;;;;;;;;;;4862852;29;20446;-91
2023/07/15 07:38:11;;;;;;;6.20;2.70;;;;;;;;;;4865110;29;20037;-92
2023/07/15 07:40:37;;;;;;;2.58;1.63;;;;;;;;;;4829997;29;20060;-90
2023/07/15 07:46:01;;;;;;;2.92;2.00;;;;;;;;;;4797354;29;20055;-87
2023/07/15 07:48:29;;;;;;;5.32;1.80;;;;;;;;;;4806138;29;20049;-86
2023/07/15 07:53:48;;;;;;;6.43;2.40;;;;;;;;;;4847153;29;20403;-90
2023/07/15 07:56:31;;;;;;;;;;;;;;;;;;;;;
2023/07/15 07:59:21;;;;;;;7.32;2.50;;;;;;;;;;4857230;29;20041;-90
2023/07/15 08:02:04;;;;;;;3.25;2.17;;;;;;;;;;4865130;29;20620;-91
2023/07/15 08:04:53;;;;;;;3.05;2.08;;;;;;;;;;4865331;29;20131;-91
2023/07/15 08:07:20;;;;;;;6.82;2.10;;;;;;;;;;4846376;29;20093;-90
2023/07/15 08:09:56;;;;;;;5.85;1.98;;;;;;;;;;4864154;29;20088;-91
2023/07/15 08:12:38;;;;;;;3.95;1.90;;;;;;;;;;4844446;29;20086;-91
2023/07/15 08:15:15;;;;;;;;;;;;;;;;;;;;;
2023/07/15 08:18:28;;;;;;;;;;;;;;;;;;;;;
2023/07/15 08:21:34;;;;;;;;;;;;;;;;;;;;;
2023/07/15 08:24:06;;;;;;;4.30;2.37;;;;;;;;;;4860054;29;20105;-88
2023/07/15 08:27:02;;;;;;;5.65;2.50;;;;;;;;;;4864771;29;20053;-91
2023/07/15 08:29:56;;;;;;;3.20;2.10;;;;;;;;;;4856712;29;20061;-90
2023/07/15 08:32:34;;;;;;;4.30;2.67;;;;;;;;;;4857841;29;20030;-90
2023/07/15 08:35:04;;;;;;;3.28;2.33;;;;;;;;;;4854764;29;20097;-89
2023/07/15 08:37:31;;;;;;;5.60;2.50;;;;;;;;;;4851501;29;20025;-89
2023/07/15 08:39:57;;;;;;;3.33;2.15;;;;;;;;;;4854743;29;20040;-89
2023/07/15 08:42:24;;;;;;;2.90;2.15;;;;;;;;;;4854980;29;20037;-91
2023/07/15 08:44:58;;;;;;;5.50;2.17;;;;;;;;;;4835887;29;20042;-91
2023/07/15 08:47:31;;;;;;;6.18;1.83;;;;;;;;;;4840701;29;20450;-90
2023/07/15 08:50:19;;;;;;;3.30;1.45;;;;;;;;;;4808123;29;20057;-88
2023/07/15 08:52:48;;;;;;;3.72;1.83;;;;;;;;;;4818049;29;20038;-88
2023/07/15 08:55:21;;;;;;;3.72;1.40;;;;;;;;;;4811563;29;20062;-88
2023/07/15 08:58:07;;;;;;;2.53;1.63;;;;;;;;;;4837633;29;20061;-89
2023/07/15 09:00:35;;;;;;;1.93;1.50;;;;;;;;;;4836169;29;20064;-89
2023/07/15 09:03:03;;;;;;;3.42;1.90;;;;;;;;;;4825451;29;20131;-89
2023/07/15 09:05:34;;;;;;;5.13;1.70;;;;;;;;;;4812416;29;20038;-88
2023/07/15 09:08:12;;;;;;;5.63;1.55;;;;;;;;;;4813087;29;20045;-90
2023/07/15 09:11:07;;;;;;;1.95;1.67;;;;;;;;;;4820948;29;20041;-89
2023/07/15 09:13:40;;;;;;;1.42;1.15;;;;;;;;;;4834863;29;20053;-88
2023/07/15 09:16:28;;;;;;;;;;;;;;;;;;;;;
2023/07/15 09:18:56;;;;;;;1.42;1.30;;;;;;;;;;4837580;29;20101;-89
2023/07/15 09:21:39;;;;;;;1.88;1.40;;;;;;;;;;4811361;29;20034;-90
2023/07/15 09:24:06;;;;;;;1.80;1.35;;;;;;;;;;4853043;29;20529;-88
2023/07/15 09:26:37;;;;;;;1.95;1.38;;;;;;;;;;4862587;29;20053;-90
2023/07/15 09:29:04;;;;;;;5.28;1.70;;;;;;;;;;4858292;29;20041;-88
2023/07/15 09:31:30;;;;;;;2.85;1.42;;;;;;;;;;4852526;29;20116;-89
2023/07/15 09:34:04;;;;;;;1.95;1.40;;;;;;;;;;4850632;29;20034;-89
2023/07/15 09:36:31;;;;;;;3.67;1.52;;;;;;;;;;4853706;29;20033;-88
2023/07/15 09:39:12;;;;;;;6.13;2.03;;;;;;;;;;4836851;29;20041;-88
2023/07/15 09:41:38;;;;;;;3.97;1.58;;;;;;;;;;4841085;29;20034;-86
2023/07/15 09:44:09;;;;;;;3.42;1.70;;;;;;;;;;4854172;29;20118;-88
2023/07/15 09:46:45;;;;;;;2.95;1.83;;;;;;;;;;4850966;29;20058;-88
2023/07/15 09:49:34;;;;;;;;;;;;;;;;;;;;;
2023/07/15 09:52:23;;;;;;;3.60;1.85;;;;;;;;;;4846930;29;20094;-90
2023/07/15 09:54:54;;;;;;;4.28;1.58;;;;;;;;;;4854213;29;20060;-94
2023/07/15 09:57:22;;;;;;;2.05;1.63;;;;;;;;;;4850545;29;20018;-95
2023/07/15 09:59:56;;;;;;;1.80;1.50;;;;;;;;;;4856319;29;20021;-92
2023/07/15 10:02:47;;;;;;;3.72;2.08;;;;;;;;;;4870076;29;20030;-94
2023/07/15 10:05:14;;;;;;;2.35;1.60;;;;;;;;;;4842624;29;20033;-91
2023/07/15 10:07:56;;;;;;;2.92;1.63;;;;;;;;;;4837066;29;20045;-93
2023/07/15 10:10:43;;;;;;;3.85;2.00;;;;;;;;;;4848873;29;20066;-89
2023/07/15 10:13:14;;;;;;;3.72;1.88;;;;;;;;;;4858102;29;20030;-89
2023/07/15 10:16:16;;;;;;;7.00;2.15;;;;;;;;;;4848426;29;20561;-90
2023/07/15 10:19:04;;;;;;;2.83;1.52;;;;;;;;;;4828011;29;20102;-88
2023/07/15 10:21:30;;;;;;;3.50;2.33;;;;;;;;;;4855732;29;20577;-88
2023/07/15 10:24:10;;;;;;;3.90;2.03;;;;;;;;;;4864494;29;20029;-89
2023/07/15 10:26:47;;;;;;;4.05;2.17;;;;;;;;;;4852056;29;20045;-89
2023/07/15 10:29:33;;;;;;;;;;;;;;;;;;;;;
2023/07/15 10:31:59;;;;;;;;;;;;;;;;;;4862167;29;20120;-88
2023/07/15 10:34:25;;;;;;;;;;;;;;;;;;4868485;29;19912;-89
2023/07/15 10:37:06;;;;;;;5.05;2.17;;;;;;;;;;4859574;29;19915;-89
2023/07/15 10:39:43;;;;;;;7.35;2.53;;;;;;;;;;4863315;29;20033;-87
2023/07/15 10:42:20;;;;;;;2.92;2.42;;;;;;;;;;4851797;29;20029;-87
2023/07/15 10:45:01;;;;;;;5.90;2.20;;;;;;;;;;4870900;29;20070;-89
2023/07/15 10:47:38;;;;;;;3.55;1.98;;;;;;;;;;4854456;29;20318;-89
2023/07/15 10:50:04;;;;;;;2.95;2.22;;;;;;;;;;4860127;29;20128;-88
2023/07/15 10:52:34;;;;;;;4.95;2.50;;;;;;;;;;4857867;29;20052;-88
2023/07/15 10:55:07;;;;;;;4.00;2.03;;;;;;;;;;4850884;29;20486;-89
2023/07/15 10:57:37;;;;;;;7.03;1.88;;;;;;;;;;4862774;29;20124;-88
2023/07/15 11:00:07;;;;;;;3.45;2.03;;;;;;;;;;4851804;29;20261;-89
2023/07/15 11:02:49;;;;;;;3.05;2.28;;;;;;;;;;4865019;29;20030;-88
2023/07/15 11:05:24;;;;;;;8.23;2.40;;;;;;;;;;4859928;29;20140;-88
2023/07/15 11:08:44;;;;;;;;;;;;;;;;;;;;;
2023/07/15 11:11:18;;;;;;;8.15;2.17;;;;;;;;;;4773729;30;20114;-87
2023/07/15 11:14:04;;;;;;;2.38;2.13;;;;;;;;;;4856612;29;20046;-89
2023/07/15 11:16:39;;;;;;;3.03;2.25;;;;;;;;;;4849597;29;20045;-89
2023/07/15 11:19:05;;;;;;;5.35;2.15;;;;;;;;;;4860947;29;20507;-88
2023/07/15 11:21:39;;;;;;;5.05;1.55;;;;;;;;;;4869064;29;20049;-88
2023/07/15 11:24:06;;;;;;;1.85;1.10;;;;;;;;;;4859165;29;20113;-89
2023/07/15 11:26:33;;;;;;;4.25;1.52;;;;;;;;;;4845310;29;20025;-89
2023/07/15 11:29:26;;;;;;;6.95;1.88;;;;;;;;;;4856341;29;20033;-88
2023/07/15 11:32:28;;;;;;;;;;;;;;;;;;;;;
2023/07/15 11:34:59;;;;;;;2.55;1.85;;;;;;;;;;4862525;29;20120;-88
2023/07/15 11:37:28;;;;;;;7.38;1.92;;;;;;;;;;4833033;29;20057;-88
2023/07/15 11:40:09;;;;;;;3.47;1.70;;;;;;;;;;4848851;29;20038;-92
2023/07/15 11:43:05;;;;;;;;;;;;;;;;;;;;;
2023/07/15 11:45:46;;;;;;;;;;;;;;;;;;;;;
2023/07/15 11:57:23;;;;;;;3.63;1.50;;;;;;;;;;4865081;29;20073;-90
2023/07/15 12:00:22;;;;;;;;;;;;;;;;;;;;;
2023/07/15 12:03:05;;;;;;;1.83;1.50;;;;;;;;;;4852735;29;20037;-90
2023/07/15 12:05:38;;;;;;;5.65;1.52;;;;;;;;;;4854340;29;20090;-90
2023/07/15 12:08:14;;;;;;;3.42;1.60;;;;;;;;;;4853373;29;20034;-91
2023/07/15 12:11:04;;;;;;;2.45;1.48;;;;;;;;;;4853165;29;20546;-91
2023/07/15 12:13:31;;;;;;;1.20;1.10;;;;;;;;;;4849289;29;20474;-91
2023/07/15 12:15:58;;;;;;;8.35;1.73;;;;;;;;;;4836911;29;20095;-90
2023/07/15 12:18:24;;;;;;;2.72;1.52;;;;;;;;;;4841384;29;20065;-90
2023/07/15 12:20:50;;;;;;;5.45;1.63;;;;;;;;;;4845131;29;20046;-89
2023/07/15 12:23:26;;;;;;;3.17;2.05;;;;;;;;;;4838633;29;20033;-90
2023/07/15 12:26:02;;;;;;;2.10;1.85;;;;;;;;;;4842624;29;20033;-88
2023/07/15 12:28:31;;;;;;;3.63;1.40;;;;;;;;;;4844467;29;20105;-90
2023/07/15 12:31:10;;;;;;;3.90;1.60;;;;;;;;;;4839658;29;20038;-91
2023/07/15 12:33:49;;;;;;;4.93;1.38;;;;;;;;;;4850438;29;20034;-90
2023/07/15 12:36:20;;;;;;;2.85;1.75;;;;;;;;;;4858091;29;20034;-91
2023/07/15 12:38:46;;;;;;;3.92;1.30;;;;;;;;;;4847859;29;20042;-91
2023/07/15 12:41:18;;;;;;;5.18;1.92;;;;;;;;;;4833218;29;20058;-91
2023/07/15 12:43:48;;;;;;;2.15;1.42;;;;;;;;;;4851812;29;20036;-90
2023/07/15 12:46:16;;;;;;;3.17;1.40;;;;;;;;;;4854057;29;20086;-90
2023/07/15 12:48:43;;;;;;;4.05;1.75;;;;;;;;;;4851124;29;20037;-91
2023/07/15 12:51:16;;;;;;;1.40;1.30;;;;;;;;;;4851487;29;20122;-91
2023/07/15 12:53:43;;;;;;;2.15;1.50;;;;;;;;;;4851792;29;20037;-90
2023/07/15 12:56:13;;;;;;;3.78;1.85;;;;;;;;;;4854849;29;20092;-89
2023/07/15 12:58:43;;;;;;;6.05;1.85;;;;;;;;;;4847895;29;20053;-87
2023/07/15 13:01:29;;;;;;;3.22;1.70;;;;;;;;;;4863538;29;20560;-89
2023/07/15 13:04:05;;;;;;;;;;;;;;;;;;4830239;29;20058;-94
2023/07/15 13:06:59;;;;;;;2.65;1.73;;;;;;;;;;4845977;29;19924;-89
2023/07/15 13:09:38;;;;;;;4.32;1.55;;;;;;;;;;4860151;29;20038;-90
2023/07/15 13:12:13;;;;;;;7.88;1.52;;;;;;;;;;4856467;29;20266;-89
2023/07/15 13:17:39;;;;;;;6.78;1.60;;;;;;;;;;4840823;29;20422;-90
2023/07/15 13:20:09;;;;;;;5.80;1.63;;;;;;;;;;4831629;29;20057;-89
2023/07/15 13:22:35;;;;;;;7.13;1.77;;;;;;;;;;4837511;29;20042;-90
2023/07/15 13:25:21;;;;;;;7.60;1.60;;;;;;;;;;4857907;29;20431;-91
2023/07/15 13:27:47;;;;;;;2.85;1.85;;;;;;;;;;4855655;29;20386;-88
2023/07/15 13:30:18;;;;;;;5.50;2.67;;;;;;;;;;4843246;29;20115;-93
2023/07/15 13:32:57;;;;;;;4.80;1.50;;;;;;;;;;4845744;29;20033;-90
2023/07/15 13:35:24;;;;;;;2.38;1.48;;;;;;;;;;4845827;29;20045;-90
2023/07/15 13:37:50;;;;;;;7.22;1.60;;;;;;;;;;4856235;29;20531;-89
2023/07/15 13:40:17;;;;;;;2.75;1.58;;;;;;;;;;4832773;29;21106;-88
2023/07/15 13:42:50;;;;;;;3.28;1.75;;;;;;;;;;4861611;29;20034;-87
2023/07/15 13:45:17;;;;;;;14.57;2.00;;;;;;;;;;4821120;29;20114;-87
2023/07/15 13:47:43;;;;;;;3.58;1.35;;;;;;;;;;4852594;29;20589;-88
2023/07/15 13:50:11;;;;;;;4.53;1.75;;;;;;;;;;4848564;29;20125;-89
2023/07/15 13:52:38;;;;;;;9.02;2.08;;;;;;;;;;4818129;29;20038;-89
2023/07/15 13:55:07;;;;;;;3.75;1.83;;;;;;;;;;4819566;29;20137;-88
2023/07/15 13:57:33;;;;;;;2.92;1.67;;;;;;;;;;4853888;29;20509;-87
2023/07/15 14:00:00;;;;;;;3.28;1.58;;;;;;;;;;4850323;29;20053;-88
2023/07/15 14:02:36;;;;;;;4.85;1.75;;;;;;;;;;4834342;29;20038;-87
2023/07/15 14:05:02;;;;;;;;;;;;;;;;;;4853169;29;20116;-89
2023/07/15 14:07:28;;;;;;;2.78;1.45;;;;;;;;;;4851551;29;20020;-89
2023/07/15 14:09:55;;;;;;;7.38;2.15;;;;;;;;;;4847243;29;20034;-89
2023/07/15 14:12:25;;;;;;;3.83;1.63;;;;;;;;;;4848762;29;20045;-89
2023/07/15 14:14:52;;;;;;;8.45;1.90;;;;;;;;;;4836309;29;20538;-88
2023/07/15 14:17:18;;;;;;;2.65;1.38;;;;;;;;;;4826495;29;20053;-89
2023/07/15 14:19:45;;;;;;;2.05;1.48;;;;;;;;;;4859899;29;20022;-89
2023/07/15 14:22:24;;;;;;;1.73;1.60;;;;;;;;;;4863016;29;20155;-89
2023/07/15 14:24:54;;;;;;;3.55;2.50;;;;;;;;;;4840478;29;22306;-89
2023/07/15 14:27:21;;;;;;;8.40;1.90;;;;;;;;;;4860301;29;20034;-90
2023/07/15 14:30:02;;;;;;;2.50;1.65;;;;;;;;;;4843392;29;20026;-90
2023/07/15 14:32:31;;;;;;;3.85;2.30;;;;;;;;;;4857230;29;20037;-90
2023/07/15 14:37:43;;;;;;;2.50;2.00;;;;;;;;;;4860653;29;20647;-89
2023/07/15 14:40:09;;;;;;;2.33;1.65;;;;;;;;;;4864401;29;20038;-89
2023/07/15 14:42:38;;;;;;;2.33;2.13;;;;;;;;;;4857445;29;20229;-88
2023/07/15 14:45:06;;;;;;;2.63;1.60;;;;;;;;;;4835505;29;20439;-89
2023/07/15 14:47:45;;;;;;;6.28;2.10;;;;;;;;;;4841896;29;20093;-90
2023/07/15 14:50:12;;;;;;;4.82;1.80;;;;;;;;;;4823763;29;20034;-90
2023/07/15 14:52:44;;;;;;;6.50;1.63;;;;;;;;;;4820126;29;20042;-90
2023/07/15 14:55:10;;;;;;;2.30;1.73;;;;;;;;;;4838622;29;20718;-89
2023/07/15 14:57:40;;;;;;;2.70;1.50;;;;;;;;;;4807259;29;20050;-90
2023/07/15 15:00:10;;;;;;;4.32;1.40;;;;;;;;;;4828084;29;20057;-89
2023/07/15 15:02:36;;;;;;;4.63;1.58;;;;;;;;;;4823754;29;20057;-90
2023/07/15 15:05:09;;;;;;;5.78;2.13;;;;;;;;;;4823945;29;20053;-89
2023/07/15 15:07:45;;;;;;;5.88;1.80;;;;;;;;;;4827009;29;20115;-89
2023/07/15 15:10:14;;;;;;;6.90;2.10;;;;;;;;;;4836357;29;20038;-90
2023/07/15 15:13:11;;;;;;;3.33;1.70;;;;;;;;;;4840991;29;20090;-89
2023/07/15 15:15:42;;;;;;;1.92;1.30;;;;;;;;;;4825599;29;20044;-90
2023/07/15 15:18:14;;;;;;;5.30;1.70;;;;;;;;;;4831085;29;20053;-89
2023/07/15 15:20:52;;;;;;;6.90;1.60;;;;;;;;;;4824790;29;20525;-89
2023/07/15 15:23:27;;;;;;;2.20;1.65;;;;;;;;;;4843019;29;20050;-90
2023/07/15 15:32:09;;;;;;;3.42;1.90;;;;;;;;;;4818688;29;20046;-90
2023/07/15 15:34:44;;;;;;;3.58;1.55;;;;;;;;;;4817174;29;20046;-90
2023/07/15 15:37:17;;;;;;;4.38;1.30;;;;;;;;;;4818986;29;20526;-90
2023/07/15 15:40:00;;;;;;;3.05;1.33;;;;;;;;;;4822543;29;20065;-89
2023/07/15 15:42:36;;;;;;;3.92;2.03;;;;;;;;;;4810892;29;20035;-89
2023/07/15 15:45:06;;;;;;;3.78;1.88;;;;;;;;;;4807553;29;20054;-90
2023/07/15 15:48:08;;;;;;;8.00;1.65;;;;;;;;;;4826063;29;20061;-90
2023/07/15 15:54:08;;;;;;;2.88;1.65;;;;;;;;;;4793074;29;20035;-90
2023/07/15 15:56:43;;;;;;;11.93;3.03;;;;;;;;;;4833746;29;20072;-89
2023/07/15 16:00:02;;;;;;;3.55;1.60;;;;;;;;;;4838260;29;20030;-89
2023/07/15 16:03:16;;;;;;;;;;;;;;;;;;;;;
2023/07/15 16:05:55;;;;;;;6.43;2.65;;;;;;;;;;4842136;29;20144;-89